createdAt,value
2023-06-19T00:00:22.504Z,5.10
2023-06-19T00:02:50.569Z,5.37
2023-06-19T00:05:18.252Z,5.15
2023-06-19T00:07:45.779Z,5.32
2023-06-19T00:10:13.499Z,4.68
2023-06-19T00:12:40.937Z,4.75
2023-06-19T00:15:10.739Z,4.57
2023-06-19T00:17:38.719Z,4.47
2023-06-19T00:20:06.856Z,5.37
2023-06-19T00:22:34.488Z,4.80
2023-06-19T00:25:02.222Z,5.07
2023-06-19T00:27:29.720Z,4.82
2023-06-19T00:30:02.768Z,4.87
2023-06-19T00:32:33.184Z,4.82
2023-06-19T00:35:02.089Z,5.00
2023-06-19T00:37:33.323Z,4.85
2023-06-19T00:40:00.870Z,4.72
2023-06-19T00:42:28.455Z,4.82
2023-06-19T00:44:56.198Z,5.43
2023-06-19T00:47:23.829Z,4.32
2023-06-19T00:49:52.063Z,5.25
2023-06-19T00:52:19.972Z,4.90
2023-06-19T00:54:47.412Z,5.18
2023-06-19T00:57:14.894Z,4.60
2023-06-19T00:59:42.588Z,4.87
2023-06-19T01:02:10.331Z,5.50
2023-06-19T01:04:37.975Z,4.80
2023-06-19T01:07:14.814Z,5.28
2023-06-19T01:10:04.954Z,4.53
2023-06-19T01:12:38.627Z,5.05
2023-06-19T01:15:08.134Z,5.43
2023-06-19T01:17:36.739Z,5.28
2023-06-19T01:20:11.723Z,5.07
2023-06-19T01:22:39.921Z,5.40
2023-06-19T01:25:08.062Z,5.22
2023-06-19T01:27:37.250Z,5.22
2023-06-19T01:30:05.549Z,4.82
2023-06-19T01:32:36.647Z,4.75
2023-06-19T01:35:04.351Z,4.30
2023-06-19T01:37:34.442Z,5.45
2023-06-19T01:42:32.772Z,5.00
2023-06-19T01:45:01.417Z,5.47
2023-06-19T01:47:28.944Z,5.25
2023-06-19T01:49:56.393Z,5.30
2023-06-19T01:52:25.772Z,5.25
2023-06-19T01:54:53.281Z,5.87
2023-06-19T01:57:23.180Z,6.22
2023-06-19T01:59:50.954Z,5.50
2023-06-19T02:02:18.521Z,5.43
2023-06-19T02:04:46.232Z,6.03
2023-06-19T02:07:13.668Z,6.50
2023-06-19T02:09:42.155Z,5.87
2023-06-19T02:12:10.162Z,6.10
2023-06-19T02:14:37.650Z,6.10
2023-06-19T02:17:05.182Z,5.68
2023-06-19T02:19:33.005Z,6.20
2023-06-19T02:22:00.427Z,5.82
2023-06-19T02:24:27.915Z,5.97
2023-06-19T02:26:55.691Z,5.97
2023-06-19T02:29:25.695Z,5.87
2023-06-19T02:31:53.177Z,6.15
2023-06-19T02:34:20.975Z,6.07
2023-06-19T02:36:48.471Z,6.28
2023-06-19T02:39:16.683Z,6.37
2023-06-19T02:41:46.978Z,6.47
2023-06-19T02:46:44.757Z,5.80
2023-06-19T02:49:12.470Z,5.78
2023-06-19T02:51:42.203Z,6.00
2023-06-19T02:56:38.001Z,6.10
2023-06-19T02:59:05.658Z,6.00
2023-06-19T03:01:33.319Z,5.37
2023-06-19T03:04:01.202Z,6.62
2023-06-19T03:06:29.262Z,6.15
2023-06-19T03:08:57.697Z,5.85
2023-06-19T03:11:25.476Z,5.93
2023-06-19T03:13:53.736Z,5.82
2023-06-19T03:16:21.828Z,6.20
2023-06-19T03:18:52.907Z,6.32
2023-06-19T03:21:21.415Z,5.72
2023-06-19T03:23:49.788Z,6.75
2023-06-19T03:26:18.979Z,6.40
2023-06-19T03:28:48.218Z,6.12
2023-06-19T03:31:16.184Z,6.28
2023-06-19T03:33:44.310Z,6.50
2023-06-19T03:36:11.917Z,6.28
2023-06-19T03:38:40.175Z,5.62
2023-06-19T03:41:09.116Z,6.20
2023-06-19T03:43:37.106Z,6.25
2023-06-19T03:46:04.952Z,6.15
2023-06-19T03:48:32.784Z,6.30
2023-06-19T03:51:00.418Z,6.30
2023-06-19T03:53:28.843Z,6.47
2023-06-19T03:55:56.864Z,6.18
2023-06-19T03:58:24.452Z,6.00
2023-06-19T04:00:53.176Z,5.80
2023-06-19T04:03:21.358Z,6.20
2023-06-19T04:05:48.988Z,6.70
2023-06-19T04:08:17.100Z,6.40
2023-06-19T04:10:44.992Z,5.93
2023-06-19T04:13:13.014Z,6.05
2023-06-19T04:15:40.570Z,6.18
2023-06-19T04:18:08.430Z,6.75
2023-06-19T04:20:38.308Z,6.95
2023-06-19T04:23:05.843Z,6.25
2023-06-19T04:25:33.543Z,7.00
2023-06-19T04:28:01.024Z,6.90
2023-06-19T04:30:28.490Z,6.15
2023-06-19T04:32:56.306Z,6.20
2023-06-19T04:35:24.852Z,5.85
2023-06-19T04:37:52.424Z,6.10
2023-06-19T04:40:20.160Z,5.90
2023-06-19T04:42:47.620Z,6.00
2023-06-19T04:45:15.120Z,6.70
2023-06-19T04:47:53.223Z,5.70
2023-06-19T04:50:22.750Z,5.90
2023-06-19T04:52:51.639Z,6.03
2023-06-19T04:55:19.807Z,6.43
2023-06-19T04:57:47.313Z,5.95
2023-06-19T05:00:16.296Z,6.15
2023-06-19T05:02:46.047Z,6.50
2023-06-19T05:05:14.180Z,6.62
2023-06-19T05:07:42.037Z,6.18
2023-06-19T05:10:10.053Z,5.95
2023-06-19T05:12:37.534Z,6.37
2023-06-19T05:15:05.622Z,7.05
2023-06-19T05:17:33.199Z,7.07
2023-06-19T05:20:00.816Z,7.10
2023-06-19T05:22:28.758Z,7.18
2023-06-19T05:24:56.237Z,7.00
2023-06-19T05:27:23.677Z,6.12
2023-06-19T05:29:51.427Z,6.93
2023-06-19T05:32:18.884Z,5.93
2023-06-19T05:34:46.397Z,6.78
2023-06-19T05:37:14.149Z,5.93
2023-06-19T05:39:41.614Z,5.97
2023-06-19T05:42:09.093Z,6.40
2023-06-19T05:44:36.883Z,6.47
2023-06-19T05:47:04.500Z,6.00
2023-06-19T05:49:32.002Z,6.07
2023-06-19T05:52:00.302Z,6.10
2023-06-19T05:54:27.944Z,5.57
2023-06-19T05:56:55.452Z,5.93
2023-06-19T05:59:23.173Z,5.70
2023-06-19T06:01:51.857Z,5.87
2023-06-19T06:04:22.962Z,6.07
2023-06-19T06:06:50.565Z,5.47
2023-06-19T06:09:18.101Z,5.53
2023-06-19T06:11:46.082Z,5.93
2023-06-19T06:14:13.755Z,6.10
2023-06-19T06:16:41.285Z,6.30
2023-06-19T06:19:09.063Z,6.25
2023-06-19T06:21:36.486Z,6.40
2023-06-19T06:24:04.180Z,5.35
2023-06-19T06:26:32.355Z,5.37
2023-06-19T06:28:59.898Z,5.62
2023-06-19T06:31:27.358Z,6.10
2023-06-19T06:33:55.067Z,6.65
2023-06-19T06:36:35.414Z,6.18
2023-06-19T06:39:03.848Z,6.75
2023-06-19T06:41:31.345Z,6.45
2023-06-19T06:43:58.809Z,6.00
2023-06-19T06:46:26.570Z,6.85
2023-06-19T06:48:54.157Z,6.25
2023-06-19T06:51:23.279Z,6.37
2023-06-19T06:53:51.852Z,5.30
2023-06-19T06:56:19.348Z,6.45
2023-06-19T06:58:48.153Z,6.70
2023-06-19T07:01:16.054Z,5.97
2023-06-19T07:03:43.710Z,6.35
2023-06-19T07:06:11.237Z,5.62
2023-06-19T07:08:41.828Z,6.20
2023-06-19T07:11:09.310Z,6.35
2023-06-19T07:13:36.767Z,6.10
2023-06-19T07:16:06.121Z,6.53
2023-06-19T07:18:35.030Z,6.00
2023-06-19T07:21:03.611Z,6.18
2023-06-19T07:23:31.309Z,5.85
2023-06-19T07:25:59.055Z,5.35
2023-06-19T07:28:26.567Z,6.47
2023-06-19T07:30:54.311Z,6.00
2023-06-19T07:33:21.775Z,5.22
2023-06-19T07:35:49.231Z,6.70
2023-06-19T07:38:17.657Z,5.45
2023-06-19T07:40:45.253Z,5.80
2023-06-19T07:43:12.705Z,5.60
2023-06-19T07:45:40.493Z,5.43
2023-06-19T07:48:08.040Z,5.20
2023-06-19T07:50:35.487Z,5.68
2023-06-19T07:53:03.223Z,5.45
2023-06-19T07:55:30.746Z,5.65
2023-06-19T07:57:58.251Z,5.30
2023-06-19T08:00:26.369Z,5.72
2023-06-19T08:02:54.473Z,5.97
2023-06-19T08:05:22.203Z,5.37
2023-06-19T08:07:49.653Z,5.32
2023-06-19T08:10:17.413Z,5.75
2023-06-19T08:12:45.274Z,6.28
2023-06-19T08:15:14.827Z,5.78
2023-06-19T08:20:10.986Z,4.72
2023-06-19T08:22:38.563Z,4.95
2023-06-19T08:25:06.693Z,5.87
2023-06-19T08:27:34.183Z,6.03
2023-06-19T08:30:01.657Z,5.45
2023-06-19T08:32:31.618Z,5.57
2023-06-19T08:34:59.178Z,5.47
2023-06-19T08:37:26.615Z,5.62
2023-06-19T08:39:54.388Z,6.00
2023-06-19T08:42:21.852Z,5.60
2023-06-19T08:44:49.704Z,5.45
2023-06-19T08:47:17.743Z,5.47
2023-06-19T08:49:45.267Z,5.12
2023-06-19T08:52:13.265Z,5.55
2023-06-19T08:54:45.054Z,6.18
2023-06-19T08:57:16.017Z,6.00
2023-06-19T08:59:51.105Z,5.43
2023-06-19T09:02:18.664Z,5.75
2023-06-19T09:04:46.470Z,5.75
2023-06-19T09:07:14.338Z,4.90
2023-06-19T09:09:46.144Z,5.68
2023-06-19T09:12:14.470Z,5.43
2023-06-19T09:14:45.946Z,5.47
2023-06-19T09:17:18.216Z,5.30
2023-06-19T09:19:49.497Z,5.60
2023-06-19T09:22:19.777Z,5.97
2023-06-19T09:24:47.415Z,5.82
2023-06-19T09:27:19.049Z,5.65
2023-06-19T09:29:48.615Z,5.45
2023-06-19T09:32:23.812Z,5.75
2023-06-19T09:34:53.260Z,5.35
2023-06-19T09:37:31.276Z,5.43
2023-06-19T09:40:10.964Z,6.32
2023-06-19T09:42:43.716Z,5.72
2023-06-19T09:45:13.266Z,5.47
2023-06-19T09:47:47.158Z,5.55
2023-06-19T09:50:18.389Z,5.57
2023-06-19T09:55:14.912Z,5.85
2023-06-19T09:57:43.182Z,6.18
2023-06-19T10:00:16.658Z,5.65
2023-06-19T10:02:45.745Z,5.35
2023-06-19T10:05:15.567Z,5.60
2023-06-19T10:07:45.084Z,5.22
2023-06-19T10:10:23.521Z,5.75
2023-06-19T10:12:51.640Z,5.78
2023-06-19T10:15:29.373Z,5.93
2023-06-19T10:18:04.158Z,5.60
2023-06-19T10:20:38.435Z,5.40
2023-06-19T10:23:20.633Z,5.43
2023-06-19T10:25:50.408Z,5.50
2023-06-19T10:28:31.564Z,5.35
2023-06-19T10:31:00.576Z,5.43
2023-06-19T10:33:30.231Z,5.25
2023-06-19T10:35:57.848Z,5.35
2023-06-19T10:38:25.329Z,5.70
2023-06-19T10:40:53.116Z,5.80
2023-06-19T10:43:31.870Z,5.78
2023-06-19T10:46:00.375Z,5.30
2023-06-19T10:48:27.842Z,5.57
2023-06-19T10:50:57.402Z,5.15
2023-06-19T10:53:26.981Z,5.30
2023-06-19T10:56:01.653Z,5.32
2023-06-19T10:58:29.676Z,5.53
2023-06-19T11:00:58.095Z,5.07
2023-06-19T11:03:25.762Z,5.32
2023-06-19T11:05:53.686Z,5.32
2023-06-19T11:08:22.528Z,5.07
2023-06-19T11:10:50.376Z,5.03
2023-06-19T11:13:21.226Z,5.87
2023-06-19T11:15:50.610Z,5.20
2023-06-19T11:18:18.809Z,5.32
2023-06-19T11:20:53.117Z,5.62
2023-06-19T11:23:30.801Z,5.12
2023-06-19T11:26:04.921Z,4.85
2023-06-19T11:28:32.654Z,5.05
2023-06-19T11:31:02.210Z,5.12
2023-06-19T11:33:30.582Z,4.90
2023-06-19T11:36:00.926Z,5.78
2023-06-19T11:38:28.690Z,4.80
2023-06-19T11:40:57.007Z,4.95
2023-06-19T11:43:29.038Z,5.80
2023-06-19T11:46:03.922Z,4.85
2023-06-19T11:48:32.631Z,4.43
2023-06-19T11:51:00.273Z,5.12
2023-06-19T11:53:27.948Z,5.07
2023-06-19T11:55:56.311Z,5.10
2023-06-19T11:58:23.845Z,5.00
2023-06-19T12:00:51.388Z,5.18
2023-06-19T12:03:19.248Z,5.62
2023-06-19T12:05:46.979Z,5.10
2023-06-19T12:08:14.493Z,5.05
2023-06-19T12:10:42.624Z,4.47
2023-06-19T12:13:10.135Z,4.60
2023-06-19T12:15:38.133Z,4.70
2023-06-19T12:18:08.317Z,4.90
2023-06-19T12:23:03.616Z,5.00
2023-06-19T12:25:31.365Z,5.00
2023-06-19T12:27:58.803Z,4.85
2023-06-19T12:30:26.523Z,4.93
2023-06-19T12:32:54.538Z,5.22
2023-06-19T12:35:23.315Z,5.10
2023-06-19T12:37:50.837Z,4.93
2023-06-19T12:40:18.941Z,4.80
2023-06-19T12:42:47.359Z,5.00
2023-06-19T12:45:14.928Z,4.65
2023-06-19T12:47:42.663Z,4.78
2023-06-19T12:50:11.476Z,4.78
2023-06-19T12:52:38.973Z,5.47
2023-06-19T12:55:06.999Z,4.50
2023-06-19T12:57:34.514Z,4.72
2023-06-19T13:00:02.036Z,5.28
2023-06-19T13:02:30.280Z,4.80
2023-06-19T13:04:59.383Z,4.75
2023-06-19T13:07:26.926Z,4.80
2023-06-19T13:09:54.666Z,4.78
2023-06-19T13:12:23.354Z,4.95
2023-06-19T13:14:50.838Z,4.50
2023-06-19T13:17:18.637Z,5.20
2023-06-19T13:19:46.223Z,4.68
2023-06-19T13:22:13.733Z,4.85
2023-06-19T13:24:41.503Z,4.72
2023-06-19T13:27:08.996Z,4.97
2023-06-19T13:29:36.447Z,4.47
2023-06-19T13:32:04.446Z,4.80
2023-06-19T13:34:32.216Z,4.80
2023-06-19T13:36:59.672Z,4.43
2023-06-19T13:39:27.441Z,4.50
2023-06-19T13:41:54.882Z,4.70
2023-06-19T13:44:22.316Z,5.12
2023-06-19T13:46:50.424Z,4.60
2023-06-19T13:49:18.052Z,4.62
2023-06-19T13:51:45.484Z,4.53
2023-06-19T13:54:14.320Z,4.60
2023-06-19T13:56:41.903Z,4.35
2023-06-19T13:59:09.672Z,4.68
2023-06-19T14:01:37.454Z,4.40
2023-06-19T14:04:05.392Z,4.47
2023-06-19T14:06:32.899Z,4.00
2023-06-19T14:09:00.341Z,4.72
2023-06-19T14:11:30.211Z,4.35
2023-06-19T14:13:57.870Z,4.45
2023-06-19T14:16:25.419Z,4.47
2023-06-19T14:18:53.249Z,4.47
2023-06-19T14:21:20.754Z,4.90
2023-06-19T14:23:48.278Z,4.20
2023-06-19T14:26:16.045Z,4.65
2023-06-19T14:28:43.556Z,4.32
2023-06-19T14:31:11.019Z,4.28
2023-06-19T14:33:39.065Z,4.10
2023-06-19T14:36:06.623Z,4.28
2023-06-19T14:38:35.190Z,4.22
2023-06-19T14:41:03.424Z,4.87
2023-06-19T14:43:33.614Z,4.60
2023-06-19T14:46:01.680Z,4.45
2023-06-19T14:48:31.497Z,4.32
2023-06-19T14:50:59.206Z,3.92
2023-06-19T14:53:26.997Z,4.30
2023-06-19T14:55:54.721Z,4.25
2023-06-19T14:58:22.276Z,4.62
2023-06-19T15:00:49.711Z,4.60
2023-06-19T15:03:17.665Z,4.28
2023-06-19T15:05:45.409Z,4.30
2023-06-19T15:08:12.917Z,3.72
2023-06-19T15:10:40.697Z,4.32
2023-06-19T15:15:38.144Z,4.07
2023-06-19T15:18:08.167Z,4.30
2023-06-19T15:20:35.714Z,3.87
2023-06-19T15:23:03.240Z,4.65
2023-06-19T15:25:31.021Z,4.10
2023-06-19T15:27:58.513Z,4.57
2023-06-19T15:30:26.385Z,4.20
2023-06-19T15:32:54.551Z,4.68
2023-06-19T15:35:22.452Z,3.60
2023-06-19T15:37:49.936Z,3.45
2023-06-19T15:40:17.677Z,4.18
2023-06-19T15:42:45.240Z,3.67
2023-06-19T15:45:14.181Z,3.97
2023-06-19T15:47:41.964Z,4.55
2023-06-19T15:50:11.074Z,4.65
2023-06-19T15:52:38.560Z,4.13
2023-06-19T15:55:06.775Z,4.65
2023-06-19T15:57:34.362Z,3.70
2023-06-19T16:00:01.877Z,5.18
2023-06-19T16:02:29.949Z,5.30
2023-06-19T16:04:57.835Z,4.87
2023-06-19T16:07:25.341Z,5.72
2023-06-19T16:09:55.605Z,5.43
2023-06-19T16:12:23.875Z,5.45
2023-06-19T16:14:51.336Z,5.05
2023-06-19T16:17:18.819Z,5.15
2023-06-19T16:19:46.573Z,5.85
2023-06-19T16:22:14.577Z,5.20
2023-06-19T16:24:42.623Z,5.32
2023-06-19T16:27:10.641Z,5.28
2023-06-19T16:29:38.092Z,5.18
2023-06-19T16:32:10.200Z,5.03
2023-06-19T16:34:38.605Z,5.12
2023-06-19T16:37:06.276Z,5.15
2023-06-19T16:39:33.835Z,4.80
2023-06-19T16:42:01.660Z,5.37
2023-06-19T16:44:29.179Z,5.78
2023-06-19T16:46:56.988Z,4.80
2023-06-19T16:49:24.834Z,4.68
2023-06-19T16:51:52.314Z,5.15
2023-06-19T16:54:19.802Z,4.93
2023-06-19T16:56:47.557Z,5.25
2023-06-19T16:59:15.090Z,4.60
2023-06-19T17:01:43.334Z,4.78
2023-06-19T17:04:11.204Z,5.15
2023-06-19T17:06:38.656Z,5.25
2023-06-19T17:09:06.153Z,4.78
2023-06-19T17:11:33.904Z,5.03
2023-06-19T17:14:01.345Z,4.78
2023-06-19T17:16:28.848Z,5.62
2023-06-19T17:18:56.784Z,4.75
2023-06-19T17:21:24.235Z,4.35
2023-06-19T17:23:52.766Z,4.97
2023-06-19T17:26:20.538Z,4.75
2023-06-19T17:28:48.235Z,5.43
2023-06-19T17:31:15.715Z,5.07
2023-06-19T17:33:43.438Z,5.05
2023-06-19T17:36:11.225Z,4.95
2023-06-19T17:38:39.365Z,4.45
2023-06-19T17:41:07.934Z,4.78
2023-06-19T17:43:35.542Z,5.47
2023-06-19T17:46:03.043Z,4.97
2023-06-19T17:48:30.833Z,5.12
2023-06-19T17:50:58.536Z,4.68
2023-06-19T17:53:26.014Z,5.43
2023-06-19T17:55:53.735Z,4.55
2023-06-19T17:58:22.651Z,4.78
2023-06-19T18:00:50.152Z,4.57
2023-06-19T18:03:17.964Z,4.93
2023-06-19T18:05:45.514Z,5.20
2023-06-19T18:08:13.000Z,5.03
2023-06-19T18:10:40.810Z,5.00
2023-06-19T18:13:08.726Z,4.55
2023-06-19T18:15:36.218Z,4.93
2023-06-19T18:18:04.141Z,4.95
2023-06-19T18:20:31.650Z,5.00
2023-06-19T18:22:59.117Z,5.30
2023-06-19T18:25:26.911Z,4.80
2023-06-19T18:27:54.410Z,4.37
2023-06-19T18:30:22.158Z,3.95
2023-06-19T18:32:50.057Z,4.50
2023-06-19T18:35:17.553Z,4.78
2023-06-19T18:37:45.034Z,4.87
2023-06-19T18:40:12.963Z,4.65
2023-06-19T18:42:42.118Z,4.55
2023-06-19T18:45:10.014Z,4.18
2023-06-19T18:47:37.967Z,4.37
2023-06-19T18:50:06.594Z,4.57
2023-06-19T18:52:34.067Z,4.40
2023-06-19T18:55:01.970Z,4.90
2023-06-19T18:57:29.575Z,4.10
2023-06-19T18:59:58.028Z,4.30
2023-06-19T19:02:26.817Z,4.60
2023-06-19T19:04:55.585Z,4.28
2023-06-19T19:07:23.741Z,4.45
2023-06-19T19:09:51.960Z,4.43
2023-06-19T19:12:19.379Z,4.55
2023-06-19T19:14:46.810Z,4.18
2023-06-19T19:17:14.563Z,4.15
2023-06-19T19:19:42.010Z,4.32
2023-06-19T19:22:09.539Z,4.72
2023-06-19T19:24:37.798Z,3.97
2023-06-19T19:27:05.904Z,4.35
2023-06-19T19:29:33.512Z,4.35
2023-06-19T19:32:01.280Z,4.20
2023-06-19T19:34:28.828Z,3.70
2023-06-19T19:36:57.366Z,3.85
2023-06-19T19:39:25.171Z,3.97
2023-06-19T19:41:52.603Z,3.97
2023-06-19T19:44:20.075Z,4.15
2023-06-19T19:46:47.849Z,4.30
2023-06-19T19:49:15.282Z,3.97
2023-06-19T19:51:42.980Z,4.43
2023-06-19T19:54:10.887Z,4.60
2023-06-19T19:56:38.425Z,4.45
2023-06-19T19:59:06.062Z,4.18
2023-06-19T20:01:34.001Z,4.00
2023-06-19T20:04:02.047Z,3.95
2023-06-19T20:06:30.079Z,4.55
2023-06-19T20:08:57.591Z,4.35
2023-06-19T20:11:25.387Z,4.10
2023-06-19T20:13:53.532Z,4.37
2023-06-19T20:16:22.396Z,4.18
2023-06-19T20:18:50.171Z,4.25
2023-06-19T20:21:17.637Z,4.65
2023-06-19T20:23:45.210Z,5.45
2023-06-19T20:26:13.020Z,4.50
2023-06-19T20:28:41.096Z,5.43
2023-06-19T20:31:08.650Z,5.22
2023-06-19T20:33:36.374Z,5.85
2023-06-19T20:36:03.996Z,5.45
2023-06-19T20:38:31.441Z,5.57
2023-06-19T20:41:01.868Z,6.22
2023-06-19T20:43:29.525Z,6.87
2023-06-19T20:46:01.319Z,6.93
2023-06-19T20:48:29.505Z,7.30
2023-06-19T20:50:58.425Z,7.85
2023-06-19T20:53:27.261Z,6.70
2023-06-19T20:55:55.082Z,6.97
2023-06-19T20:58:28.346Z,6.72
2023-06-19T21:00:56.238Z,7.22
2023-06-19T21:03:24.494Z,7.55
2023-06-19T21:05:52.151Z,7.53
2023-06-19T21:08:19.866Z,7.30
2023-06-19T21:10:47.354Z,7.05
2023-06-19T21:13:22.311Z,8.05
2023-06-19T21:15:50.772Z,7.53
2023-06-19T21:18:18.872Z,8.13
2023-06-19T21:20:46.342Z,7.80
2023-06-19T21:23:14.206Z,7.30
2023-06-19T21:25:41.711Z,7.78
2023-06-19T21:28:09.167Z,7.60
2023-06-19T21:30:36.879Z,7.72
2023-06-19T21:33:04.861Z,7.35
2023-06-19T21:35:32.441Z,8.07
2023-06-19T21:38:00.206Z,7.47
2023-06-19T21:40:27.878Z,7.78
2023-06-19T21:42:55.634Z,7.60
2023-06-19T21:45:23.470Z,7.93
2023-06-19T21:47:51.381Z,7.87
2023-06-19T21:50:20.641Z,7.97
2023-06-19T21:52:48.509Z,7.93
2023-06-19T21:55:15.937Z,7.40
2023-06-19T22:00:15.484Z,7.22
2023-06-19T22:02:46.449Z,7.43
2023-06-19T22:05:14.013Z,7.28
2023-06-19T22:07:41.507Z,7.78
2023-06-19T22:10:09.968Z,7.80
2023-06-19T22:12:37.408Z,7.60
2023-06-19T22:15:05.152Z,6.90
2023-06-19T22:17:32.988Z,8.15
2023-06-19T22:20:00.512Z,7.43
2023-06-19T22:22:27.977Z,8.00
2023-06-19T22:24:55.744Z,6.95
2023-06-19T22:27:23.183Z,7.18
2023-06-19T22:29:50.654Z,7.37
2023-06-19T22:32:19.982Z,7.28
2023-06-19T22:34:47.676Z,7.93
2023-06-19T22:37:17.438Z,7.30
2023-06-19T22:39:46.725Z,7.72
2023-06-19T22:42:14.206Z,7.05
2023-06-19T22:44:41.650Z,6.82
2023-06-19T22:47:09.419Z,7.47
2023-06-19T22:49:36.993Z,7.05
2023-06-19T22:52:04.751Z,7.53
2023-06-19T22:54:32.484Z,7.55
2023-06-19T22:57:00.299Z,7.00
2023-06-19T22:59:27.721Z,6.55
2023-06-19T23:01:55.463Z,7.10
2023-06-19T23:04:22.954Z,7.28
2023-06-19T23:06:52.211Z,7.75
2023-06-19T23:09:20.092Z,6.80
2023-06-19T23:11:49.565Z,6.43
2023-06-19T23:14:17.077Z,6.45
2023-06-19T23:16:44.898Z,6.18
2023-06-19T23:19:12.851Z,6.40
2023-06-19T23:21:40.315Z,7.35
2023-06-19T23:24:11.604Z,6.90
2023-06-19T23:26:39.139Z,6.35
2023-06-19T23:29:08.389Z,6.70
2023-06-19T23:31:36.997Z,6.60
2023-06-19T23:34:05.776Z,5.95
2023-06-19T23:36:33.246Z,5.87
2023-06-19T23:39:02.102Z,6.10
2023-06-19T23:41:29.603Z,5.82
2023-06-19T23:43:57.080Z,5.97
2023-06-19T23:46:24.850Z,5.50
2023-06-19T23:48:52.675Z,6.28
2023-06-19T23:51:20.157Z,6.40
2023-06-19T23:53:47.913Z,6.70
2023-06-19T23:56:15.398Z,6.55
2023-06-19T23:58:42.837Z,6.32
